createdAt,value
2022-11-29T00:01:15.006Z,101436.78
2022-11-29T00:03:41.766Z,101447.13
2022-11-29T00:06:12.016Z,101447.25
2022-11-29T00:08:39.351Z,101439.53
2022-11-29T00:11:12.051Z,101443.09
2022-11-29T00:13:39.185Z,101432.75
2022-11-29T00:16:08.481Z,101449.25
2022-11-29T00:18:35.407Z,101439.78
2022-11-29T00:21:07.059Z,101448.59
2022-11-29T00:23:33.992Z,101459.88
2022-11-29T00:26:07.936Z,101459.97
2022-11-29T00:28:35.545Z,101460.09
2022-11-29T00:31:13.720Z,101454.16
2022-11-29T00:33:40.152Z,101457.66
2022-11-29T00:36:07.137Z,101463.88
2022-11-29T00:38:33.555Z,101471.81
2022-11-29T00:40:59.982Z,101479.75
2022-11-29T00:43:26.439Z,101481.59
2022-11-29T00:45:52.941Z,101474.81
2022-11-29T00:48:19.507Z,101481.00
2022-11-29T00:50:45.942Z,101479.38
2022-11-29T00:53:12.491Z,101487.25
2022-11-29T00:55:38.959Z,101489.91
2022-11-29T00:58:06.170Z,101487.47
2022-11-29T01:00:32.724Z,101485.81
2022-11-29T01:02:59.237Z,101484.09
2022-11-29T01:05:25.679Z,101496.25
2022-11-29T01:07:52.191Z,101494.59
2022-11-29T01:10:19.068Z,101492.94
2022-11-29T01:12:45.528Z,101505.09
2022-11-29T01:15:12.268Z,101504.28
2022-11-29T01:17:39.633Z,101512.06
2022-11-29T01:20:08.483Z,101510.41
2022-11-29T01:22:36.028Z,101513.91
2022-11-29T01:25:02.963Z,101507.91
2022-11-29T01:27:29.779Z,101503.59
2022-11-29T01:29:56.267Z,101510.56
2022-11-29T01:32:22.811Z,101510.56
2022-11-29T01:34:49.379Z,101520.09
2022-11-29T01:37:16.144Z,101520.94
2022-11-29T01:39:42.639Z,101517.53
2022-11-29T01:42:13.673Z,101517.59
2022-11-29T01:44:40.057Z,101521.09
2022-11-29T01:47:06.508Z,101519.38
2022-11-29T01:49:37.309Z,101523.72
2022-11-29T01:52:11.575Z,101531.50
2022-11-29T01:54:45.380Z,101525.47
2022-11-29T01:57:13.088Z,101530.72
2022-11-29T01:59:46.560Z,101539.38
2022-11-29T02:02:22.422Z,101549.75
2022-11-29T02:04:51.270Z,101549.78
2022-11-29T02:07:17.861Z,101548.91
2022-11-29T02:09:44.381Z,101551.56
2022-11-29T02:12:31.816Z,101544.66
2022-11-29T02:15:08.883Z,101542.91
2022-11-29T02:18:14.788Z,101556.78
2022-11-29T02:20:59.820Z,101559.38
2022-11-29T02:23:44.773Z,101556.84
2022-11-29T02:26:48.617Z,101564.59
2022-11-29T02:29:52.545Z,101570.69
2022-11-29T02:32:50.155Z,101572.44
2022-11-29T02:35:35.362Z,101570.72
2022-11-29T02:38:04.891Z,101573.34
2022-11-29T02:40:49.536Z,101576.78
2022-11-29T02:43:34.688Z,101584.59
2022-11-29T02:46:20.988Z,101595.81
2022-11-29T02:49:13.184Z,101596.69
2022-11-29T02:51:57.836Z,101591.56
2022-11-29T02:54:40.346Z,101600.19
2022-11-29T02:57:23.462Z,101602.78
2022-11-29T03:00:02.386Z,101601.94
2022-11-29T03:02:47.044Z,101607.97
2022-11-29T03:05:35.476Z,101614.91
2022-11-29T03:08:20.340Z,101615.78
2022-11-29T03:11:02.593Z,101625.31
2022-11-29T03:14:13.327Z,101625.34
2022-11-29T03:17:20.197Z,101627.94
2022-11-29T03:20:00.032Z,101634.00
2022-11-29T03:22:26.424Z,101634.00
2022-11-29T03:25:09.424Z,101637.47
2022-11-29T03:27:52.667Z,101645.28
2022-11-29T03:30:20.089Z,101648.69
2022-11-29T03:33:05.452Z,101650.47
2022-11-29T03:35:47.068Z,101651.34
2022-11-29T03:38:38.371Z,101653.88
2022-11-29T03:41:16.440Z,101658.22
2022-11-29T03:43:45.742Z,101666.91
2022-11-29T03:46:18.769Z,101672.09
2022-11-29T03:49:01.499Z,101659.09
2022-11-29T03:51:54.475Z,101677.28
2022-11-29T03:54:47.356Z,101677.28
2022-11-29T03:57:20.689Z,101670.31
2022-11-29T03:59:52.167Z,101675.50
2022-11-29T04:02:33.577Z,101679.81
2022-11-29T04:06:05.380Z,101684.19
2022-11-29T04:08:59.397Z,101686.78
2022-11-29T04:11:54.707Z,101680.72
2022-11-29T04:14:45.803Z,101688.50
2022-11-29T04:17:32.631Z,101688.50
2022-11-29T04:20:23.998Z,101695.41
2022-11-29T04:23:03.116Z,101691.09
2022-11-29T04:25:35.525Z,101691.09
2022-11-29T04:28:11.063Z,101693.69
2022-11-29T04:30:55.656Z,101696.22
2022-11-29T04:33:47.321Z,101706.56
2022-11-29T04:36:32.392Z,101706.56
2022-11-29T04:39:04.844Z,101706.56
2022-11-29T04:41:57.185Z,101710.88
2022-11-29T04:44:54.963Z,101714.34
2022-11-29T04:47:49.376Z,101714.34
2022-11-29T04:50:34.035Z,101714.34
2022-11-29T04:53:22.381Z,101720.38
2022-11-29T04:56:19.151Z,101723.81
2022-11-29T04:59:07.388Z,101726.38
2022-11-29T05:02:16.161Z,101730.69
2022-11-29T05:04:56.145Z,101721.13
2022-11-29T05:07:51.496Z,101732.34
2022-11-29T05:10:44.171Z,101751.34
2022-11-29T05:13:34.165Z,101751.34
2022-11-29T05:16:11.667Z,101758.22
2022-11-29T05:19:08.638Z,101767.72
2022-11-29T05:21:41.305Z,101765.09
2022-11-29T05:24:15.038Z,101766.81
2022-11-29T05:26:47.390Z,101770.25
2022-11-29T05:29:29.812Z,101776.28
2022-11-29T05:32:32.965Z,101766.72
2022-11-29T05:35:21.172Z,101753.69
2022-11-29T05:37:52.808Z,101777.06
2022-11-29T05:40:22.210Z,101770.16
2022-11-29T05:42:57.653Z,101774.47
2022-11-29T05:46:02.093Z,101771.88
2022-11-29T05:48:47.490Z,101773.59
2022-11-29T05:51:29.600Z,101765.84
2022-11-29T05:54:07.964Z,101775.34
2022-11-29T05:56:46.488Z,101782.19
2022-11-29T05:59:18.166Z,101790.00
2022-11-29T06:02:12.235Z,101795.19
2022-11-29T06:04:57.415Z,101799.50
2022-11-29T06:07:41.535Z,101802.09
2022-11-29T06:10:18.750Z,101797.78
2022-11-29T06:12:58.368Z,101801.16
2022-11-29T06:16:03.915Z,101791.56
2022-11-29T06:18:52.791Z,101805.47
2022-11-29T06:21:25.311Z,101814.94
2022-11-29T06:24:05.600Z,101819.19
2022-11-29T06:27:00.312Z,101819.19
2022-11-29T06:29:37.757Z,101815.66
2022-11-29T06:32:34.206Z,101831.28
2022-11-29T06:35:12.112Z,101821.78
2022-11-29T06:37:42.185Z,101828.66
2022-11-29T06:40:14.656Z,101832.94
2022-11-29T06:42:41.094Z,101835.50
2022-11-29T06:45:10.604Z,101840.69
2022-11-29T06:47:40.137Z,101848.50
2022-11-29T06:50:30.262Z,101848.50
2022-11-29T06:53:08.326Z,101844.13
2022-11-29T06:56:22.621Z,101851.03
2022-11-29T06:58:54.985Z,101862.31
2022-11-29T07:01:44.293Z,101857.94
2022-11-29T07:04:21.304Z,101861.41
2022-11-29T07:06:48.199Z,101864.91
2022-11-29T07:09:18.440Z,101871.75
2022-11-29T07:11:47.077Z,101870.00
2022-11-29T07:14:14.888Z,101876.03
2022-11-29T07:16:55.884Z,101890.72
2022-11-29T07:19:36.341Z,101881.22
2022-11-29T07:22:18.756Z,101888.22
2022-11-29T07:25:13.055Z,101891.72
2022-11-29T07:27:55.142Z,101895.19
2022-11-29T07:30:31.615Z,101902.13
2022-11-29T07:33:19.766Z,101901.25
2022-11-29T07:36:03.079Z,101902.97
2022-11-29T07:39:08.625Z,101909.06
2022-11-29T07:42:00.493Z,101898.72
2022-11-29T07:44:39.285Z,101902.97
2022-11-29T07:47:06.042Z,101915.13
2022-11-29T07:49:32.516Z,101911.66
2022-11-29T07:51:59.185Z,101928.97
2022-11-29T07:54:25.769Z,101928.13
2022-11-29T07:56:52.508Z,101921.97
2022-11-29T07:59:18.976Z,101939.38
2022-11-29T08:01:45.447Z,101944.56
2022-11-29T08:04:11.989Z,101955.81
2022-11-29T08:06:38.454Z,101948.88
2022-11-29T08:09:05.392Z,101961.84
2022-11-29T08:11:31.843Z,101963.56
2022-11-29T08:13:59.896Z,101959.25
2022-11-29T08:16:26.499Z,101957.59
2022-11-29T08:18:53.203Z,101953.28
2022-11-29T08:21:19.766Z,101959.34
2022-11-29T08:23:50.074Z,101965.38
2022-11-29T08:26:17.967Z,101967.13
2022-11-29T08:28:44.717Z,101965.34
2022-11-29T08:31:13.005Z,101967.94
2022-11-29T08:33:41.768Z,101979.16
2022-11-29T08:36:19.386Z,101973.09
2022-11-29T08:38:46.478Z,101972.19
2022-11-29T08:41:15.744Z,101973.06
2022-11-29T08:43:43.120Z,101960.97
2022-11-29T08:46:13.781Z,101965.34
2022-11-29T08:48:43.343Z,101964.50
2022-11-29T08:51:09.799Z,101961.97
2022-11-29T08:53:42.243Z,101958.53
2022-11-29T08:56:41.753Z,101967.16
2022-11-29T08:58:58.086Z,101966.31
2022-11-29T09:01:24.739Z,101963.72
2022-11-29T09:03:59.935Z,101957.66
2022-11-29T09:06:28.431Z,101948.09
2022-11-29T09:08:56.481Z,101955.88
2022-11-29T09:11:24.836Z,101966.28
2022-11-29T09:13:54.413Z,101964.44
2022-11-29T09:16:24.281Z,101972.28
2022-11-29T09:18:52.445Z,101986.09
2022-11-29T09:21:19.299Z,101993.00
2022-11-29T09:23:46.277Z,101998.19
2022-11-29T09:26:18.541Z,102002.53
2022-11-29T09:28:46.061Z,102011.13
2022-11-29T09:31:15.353Z,102015.41
2022-11-29T09:33:41.871Z,102018.88
2022-11-29T09:36:10.670Z,102030.97
2022-11-29T09:38:38.107Z,102042.16
2022-11-29T09:41:13.582Z,102039.53
2022-11-29T09:44:05.970Z,102045.56
2022-11-29T09:47:00.505Z,102048.13
2022-11-29T09:49:33.963Z,102050.72
2022-11-29T09:52:38.262Z,102048.97
2022-11-29T09:55:42.942Z,102055.94
2022-11-29T09:58:15.093Z,102045.63
2022-11-29T10:00:48.297Z,102044.66
2022-11-29T10:03:20.644Z,102038.59
2022-11-29T10:05:57.648Z,102036.03
2022-11-29T10:08:49.845Z,102037.78
2022-11-29T10:11:20.236Z,102042.97
2022-11-29T10:14:02.782Z,102033.44
2022-11-29T10:16:48.058Z,102039.59
2022-11-29T10:19:18.326Z,102045.66
2022-11-29T10:21:54.154Z,102039.59
2022-11-29T10:24:23.236Z,102050.88
2022-11-29T10:26:49.875Z,102057.81
2022-11-29T10:29:16.463Z,102048.28
2022-11-29T10:31:49.231Z,102050.16
2022-11-29T10:34:21.907Z,102057.06
2022-11-29T10:36:55.149Z,102057.03
2022-11-29T10:39:24.272Z,102062.22
2022-11-29T10:41:55.956Z,102060.41
2022-11-29T10:44:23.477Z,102059.53
2022-11-29T10:46:50.466Z,102062.22
2022-11-29T10:49:23.343Z,102070.00
2022-11-29T10:51:49.879Z,102065.59
2022-11-29T10:54:19.333Z,102077.75
2022-11-29T10:56:47.051Z,102071.69
2022-11-29T10:59:25.488Z,102078.63
2022-11-29T11:01:52.284Z,102082.09
2022-11-29T11:04:35.313Z,102081.22
2022-11-29T11:07:04.918Z,102093.31
2022-11-29T11:09:48.492Z,102085.53
2022-11-29T11:12:14.896Z,102079.53
2022-11-29T11:14:43.825Z,102077.78
2022-11-29T11:17:26.625Z,102078.72
2022-11-29T11:20:08.388Z,102084.69
2022-11-29T11:22:39.734Z,102073.47
2022-11-29T11:25:29.283Z,102083.91
2022-11-29T11:27:57.270Z,102081.22
2022-11-29T11:30:27.372Z,102071.69
2022-11-29T11:33:28.415Z,102066.53
2022-11-29T11:36:09.941Z,102067.41
2022-11-29T11:38:56.587Z,102063.09
2022-11-29T11:41:48.817Z,102063.97
2022-11-29T11:44:46.495Z,102053.63
2022-11-29T11:47:16.473Z,102058.88
2022-11-29T11:49:56.570Z,102052.84
2022-11-29T11:52:25.972Z,102040.75
2022-11-29T11:54:56.727Z,102054.56
2022-11-29T11:57:25.417Z,102046.84
2022-11-29T11:59:54.634Z,102051.19
2022-11-29T12:02:38.869Z,102046.00
2022-11-29T12:05:13.289Z,102053.78
2022-11-29T12:08:10.558Z,102045.06
2022-11-29T12:10:39.886Z,102057.25
2022-11-29T12:13:20.094Z,102046.00
2022-11-29T12:15:49.880Z,102053.78
2022-11-29T12:18:27.214Z,102046.00
2022-11-29T12:21:14.629Z,102040.84
2022-11-29T12:23:57.544Z,102038.25
2022-11-29T12:26:57.071Z,102049.44
2022-11-29T12:29:22.355Z,102032.00
2022-11-29T12:31:55.077Z,102045.91
2022-11-29T12:34:47.655Z,102053.69
2022-11-29T12:37:22.055Z,102036.25
2022-11-29T12:40:10.227Z,102064.03
2022-11-29T12:42:52.621Z,102073.53
2022-11-29T12:45:39.229Z,102052.75
2022-11-29T12:48:05.717Z,102061.47
2022-11-29T12:51:02.016Z,102070.09
2022-11-29T12:54:00.816Z,102071.81
2022-11-29T12:56:55.823Z,102064.06
2022-11-29T12:59:25.225Z,102065.81
2022-11-29T13:02:24.040Z,102063.19
2022-11-29T13:05:33.847Z,102070.13
2022-11-29T13:08:34.515Z,102078.84
2022-11-29T13:11:19.426Z,102073.66
2022-11-29T13:13:53.245Z,102057.16
2022-11-29T13:16:47.500Z,102067.66
2022-11-29T13:19:32.783Z,102076.31
2022-11-29T13:22:28.370Z,102072.00
2022-11-29T13:24:59.503Z,102062.50
2022-11-29T13:27:34.767Z,102065.97
2022-11-29T13:30:02.063Z,102046.75
2022-11-29T13:32:35.221Z,102072.88
2022-11-29T13:35:27.363Z,102061.53
2022-11-29T13:37:55.529Z,102070.28
2022-11-29T13:40:48.370Z,102065.97
2022-11-29T13:43:17.740Z,102067.69
2022-11-29T13:46:01.790Z,102057.22
2022-11-29T13:48:28.378Z,102064.22
2022-11-29T13:50:56.728Z,102070.31
2022-11-29T13:53:25.904Z,102071.13
2022-11-29T13:56:02.679Z,102073.72
2022-11-29T13:58:29.202Z,102072.00
2022-11-29T14:01:00.154Z,102072.00
2022-11-29T14:04:07.032Z,102076.31
2022-11-29T14:06:37.248Z,102064.22
2022-11-29T14:09:21.957Z,102072.03
2022-11-29T14:12:03.252Z,102052.91
2022-11-29T14:14:51.063Z,102059.91
2022-11-29T14:17:26.796Z,102063.34
2022-11-29T14:20:25.225Z,102070.25
2022-11-29T14:23:17.260Z,102071.03
2022-11-29T14:25:59.136Z,102070.09
2022-11-29T14:28:33.078Z,102063.94
2022-11-29T14:31:04.641Z,102069.91
2022-11-29T14:33:38.546Z,102079.47
2022-11-29T14:36:41.654Z,102080.34
2022-11-29T14:39:29.967Z,102081.13
2022-11-29T14:42:18.633Z,102080.28
2022-11-29T14:45:00.665Z,102082.00
2022-11-29T14:47:35.591Z,102078.56
2022-11-29T14:50:07.364Z,102083.69
2022-11-29T14:52:40.861Z,102093.19
2022-11-29T14:55:16.573Z,102098.38
2022-11-29T14:58:06.011Z,102089.72
2022-11-29T15:00:32.470Z,102094.91
2022-11-29T15:03:17.452Z,102102.56
2022-11-29T15:05:59.661Z,102096.44
2022-11-29T15:08:52.886Z,102099.88
2022-11-29T15:11:35.612Z,102099.06
2022-11-29T15:14:25.385Z,102103.47
2022-11-29T15:17:20.062Z,102095.75
2022-11-29T15:20:22.906Z,102087.91
2022-11-29T15:22:55.424Z,102074.88
2022-11-29T15:25:24.677Z,102101.75
2022-11-29T15:27:52.308Z,102100.03
2022-11-29T15:30:20.756Z,102110.38
2022-11-29T15:32:47.422Z,102101.72
2022-11-29T15:35:18.759Z,102102.59
2022-11-29T15:37:48.365Z,102100.03
2022-11-29T15:40:18.199Z,102117.28
2022-11-29T15:42:50.740Z,102105.19
2022-11-29T15:45:37.599Z,102105.19
2022-11-29T15:48:12.440Z,102090.41
2022-11-29T15:50:42.009Z,102111.31
2022-11-29T15:53:16.213Z,102112.19
2022-11-29T15:55:44.344Z,102113.91
2022-11-29T15:58:12.997Z,102111.28
2022-11-29T16:00:40.080Z,102112.09
2022-11-29T16:03:18.637Z,102106.91
2022-11-29T16:05:50.554Z,102115.56
2022-11-29T16:08:20.585Z,102098.19
2022-11-29T16:10:52.871Z,102097.41
2022-11-29T16:13:25.324Z,102115.66
2022-11-29T16:16:15.626Z,102117.34
2022-11-29T16:18:44.430Z,102120.91
2022-11-29T16:21:37.338Z,102113.94
2022-11-29T16:24:23.005Z,102112.28
2022-11-29T16:26:52.994Z,102084.44
2022-11-29T16:29:29.021Z,102101.81
2022-11-29T16:31:55.921Z,102102.72
2022-11-29T16:34:31.189Z,102112.22
2022-11-29T16:37:07.285Z,102113.91
2022-11-29T16:39:37.791Z,102125.97
2022-11-29T16:42:13.513Z,102123.38
2022-11-29T16:44:39.947Z,102130.31
2022-11-29T16:47:18.876Z,102141.56
2022-11-29T16:49:45.763Z,102145.88
2022-11-29T16:52:27.998Z,102142.50
2022-11-29T16:54:54.455Z,102126.06
2022-11-29T16:57:21.204Z,102123.44
2022-11-29T16:59:48.005Z,102134.66
2022-11-29T17:02:15.563Z,102136.47
2022-11-29T17:04:42.745Z,102110.31
2022-11-29T17:07:25.116Z,102125.91
2022-11-29T17:09:52.856Z,102131.09
2022-11-29T17:12:19.561Z,102138.97
2022-11-29T17:14:46.211Z,102124.06
2022-11-29T17:17:15.098Z,102124.97
2022-11-29T17:19:41.562Z,102139.81
2022-11-29T17:22:08.022Z,102152.88
2022-11-29T17:24:34.489Z,102148.53
2022-11-29T17:27:00.953Z,102122.34
2022-11-29T17:29:27.554Z,102146.69
2022-11-29T17:31:54.075Z,102152.69
2022-11-29T17:34:21.031Z,102137.84
2022-11-29T17:36:47.785Z,102162.91
2022-11-29T17:39:15.813Z,102161.25
2022-11-29T17:41:42.444Z,102143.78
2022-11-29T17:44:09.574Z,102155.97
2022-11-29T17:46:36.998Z,102169.03
2022-11-29T17:49:06.716Z,102158.69
2022-11-29T17:51:57.460Z,102153.44
2022-11-29T17:54:24.488Z,102163.88
2022-11-29T17:56:51.904Z,102161.25
2022-11-29T17:59:20.697Z,102177.69
2022-11-29T18:01:47.647Z,102182.88
2022-11-29T18:04:14.366Z,102162.88
2022-11-29T18:06:41.203Z,102164.63
2022-11-29T18:09:09.670Z,102161.19
2022-11-29T18:11:47.022Z,102162.06
2022-11-29T18:14:17.145Z,102156.84
2022-11-29T18:16:45.437Z,102179.53
2022-11-29T18:19:15.241Z,102182.13
2022-11-29T18:21:42.132Z,102175.13
2022-11-29T18:24:09.776Z,102184.69
2022-11-29T18:26:37.564Z,102166.31
2022-11-29T18:29:05.508Z,102184.59
2022-11-29T18:31:35.368Z,102191.63
2022-11-29T18:34:07.058Z,102204.66
2022-11-29T18:36:45.442Z,102202.88
2022-11-29T18:39:17.501Z,102197.75
2022-11-29T18:41:46.197Z,102202.00
2022-11-29T18:44:14.716Z,102189.88
2022-11-29T18:46:44.061Z,102196.00
2022-11-29T18:49:13.057Z,102213.28
2022-11-29T18:51:42.997Z,102208.94
2022-11-29T18:54:10.144Z,102208.97
2022-11-29T18:56:38.057Z,102202.06
2022-11-29T18:59:10.137Z,102177.66
2022-11-29T19:01:41.185Z,102202.06
2022-11-29T19:04:09.831Z,102186.38
2022-11-29T19:06:39.952Z,102195.09
2022-11-29T19:09:10.665Z,102203.81
2022-11-29T19:11:37.295Z,102195.03
2022-11-29T19:14:10.996Z,102203.69
2022-11-29T19:16:39.851Z,102188.13
2022-11-29T19:19:06.673Z,102202.94
2022-11-29T19:21:34.583Z,102219.38
2022-11-29T19:24:03.835Z,102214.16
2022-11-29T19:26:31.830Z,102221.94
2022-11-29T19:29:00.198Z,102194.97
2022-11-29T19:31:27.457Z,102205.50
2022-11-29T19:33:55.315Z,102212.56
2022-11-29T19:36:28.137Z,102205.66
2022-11-29T19:38:56.016Z,102205.50
2022-11-29T19:41:28.195Z,102184.63
2022-11-29T19:43:59.938Z,102181.22
2022-11-29T19:46:35.834Z,102215.22
2022-11-29T19:49:03.531Z,102203.94
2022-11-29T19:51:30.958Z,102206.59
2022-11-29T19:54:00.672Z,102192.63
2022-11-29T19:56:28.861Z,102189.13
2022-11-29T19:58:55.727Z,102186.38
2022-11-29T20:01:25.334Z,102209.94
2022-11-29T20:03:53.083Z,102210.00
2022-11-29T20:06:20.049Z,102199.50
2022-11-29T20:08:47.478Z,102195.09
2022-11-29T20:11:22.349Z,102217.75
2022-11-29T20:14:07.865Z,102216.03
2022-11-29T20:16:35.293Z,102202.09
2022-11-29T20:19:01.936Z,102221.22
2022-11-29T20:21:32.745Z,102222.13
2022-11-29T20:24:04.741Z,102204.66
2022-11-29T20:26:33.712Z,102223.81
2022-11-29T20:29:01.981Z,102230.72
2022-11-29T20:31:28.848Z,102228.09
2022-11-29T20:33:57.459Z,102226.47
2022-11-29T20:36:43.388Z,102231.66
2022-11-29T20:39:34.701Z,102240.31
2022-11-29T20:42:35.657Z,102241.06
2022-11-29T20:45:04.965Z,102249.78
2022-11-29T20:47:46.989Z,102253.22
2022-11-29T20:50:27.645Z,102257.56
2022-11-29T20:53:18.581Z,102257.56
2022-11-29T20:55:48.236Z,102261.91
2022-11-29T20:58:15.781Z,102255.00
2022-11-29T21:00:42.287Z,102263.69
2022-11-29T21:03:08.750Z,102229.84
2022-11-29T21:05:37.746Z,102252.47
2022-11-29T21:08:04.425Z,102245.50
2022-11-29T21:10:30.936Z,102240.38
2022-11-29T21:12:57.793Z,102244.66
2022-11-29T21:15:24.624Z,102250.78
2022-11-29T21:17:51.495Z,102243.88
2022-11-29T21:20:21.708Z,102245.59
2022-11-29T21:23:20.838Z,102243.00
2022-11-29T21:26:00.120Z,102242.16
2022-11-29T21:28:34.663Z,102248.25
2022-11-29T21:31:01.506Z,102233.53
2022-11-29T21:33:28.351Z,102221.22
2022-11-29T21:35:58.109Z,102245.63
2022-11-29T21:38:26.757Z,102254.25
2022-11-29T21:40:53.225Z,102252.59
2022-11-29T21:43:20.807Z,102259.50
2022-11-29T21:45:49.244Z,102240.41
2022-11-29T21:48:34.259Z,102248.25
2022-11-29T21:51:08.097Z,102247.41
2022-11-29T21:53:36.707Z,102248.31
2022-11-29T21:56:06.316Z,102230.88
2022-11-29T21:58:34.865Z,102247.44
2022-11-29T22:01:12.756Z,102247.41
2022-11-29T22:03:39.992Z,102207.34
2022-11-29T22:06:16.286Z,102236.97
2022-11-29T22:08:42.822Z,102247.34
2022-11-29T22:11:11.621Z,102249.16
2022-11-29T22:13:58.128Z,102250.88
2022-11-29T22:16:25.505Z,102248.28
2022-11-29T22:18:52.090Z,102248.28
2022-11-29T22:21:18.620Z,102243.97
2022-11-29T22:23:45.162Z,102256.03
2022-11-29T22:26:12.164Z,102246.47
2022-11-29T22:28:38.937Z,102228.22
2022-11-29T22:31:10.216Z,102246.47
2022-11-29T22:33:37.516Z,102249.03
2022-11-29T22:36:06.029Z,102224.63
2022-11-29T22:38:33.536Z,102258.63
2022-11-29T22:41:01.792Z,102257.78
2022-11-29T22:43:30.330Z,102249.94
2022-11-29T22:46:05.124Z,102232.53
2022-11-29T22:48:38.206Z,102217.75
2022-11-29T22:51:16.954Z,102256.94
2022-11-29T22:53:50.292Z,102248.28
2022-11-29T22:56:17.312Z,102246.56
2022-11-29T22:58:43.992Z,102252.53
2022-11-29T23:01:18.776Z,102245.69
2022-11-29T23:03:48.411Z,102251.75
2022-11-29T23:06:18.073Z,102245.59
2022-11-29T23:08:46.169Z,102235.13
2022-11-29T23:11:15.609Z,102259.44
2022-11-29T23:13:43.392Z,102262.94
2022-11-29T23:16:13.003Z,102246.56
2022-11-29T23:18:40.052Z,102243.03
2022-11-29T23:21:10.559Z,102251.75
2022-11-29T23:23:38.376Z,102250.88
2022-11-29T23:26:06.942Z,102247.47
2022-11-29T23:28:34.482Z,102236.06
2022-11-29T23:31:01.379Z,102219.59
2022-11-29T23:33:28.248Z,102212.63
2022-11-29T23:36:03.050Z,102231.78
2022-11-29T23:38:29.695Z,102245.72
2022-11-29T23:40:56.252Z,102237.03
2022-11-29T23:43:23.370Z,102250.91
2022-11-29T23:45:50.414Z,102241.38
2022-11-29T23:48:17.430Z,102239.69
2022-11-29T23:50:43.956Z,102250.03
2022-11-29T23:53:15.247Z,102245.66
2022-11-29T23:55:42.260Z,102246.56
2022-11-29T23:58:10.106Z,102249.94
